createdAt,value
2023-03-31T00:02:22.808Z,87.70
2023-03-31T00:08:30.147Z,87.88
2023-03-31T00:14:32.537Z,88.58
2023-03-31T00:20:38.222Z,89.08
2023-03-31T00:26:40.422Z,89.13
2023-03-31T00:32:42.707Z,89.40
2023-03-31T00:38:46.366Z,89.25
2023-03-31T00:45:19.151Z,89.16
2023-03-31T00:51:23.286Z,89.56
2023-03-31T00:57:28.614Z,89.71
2023-03-31T01:03:33.521Z,89.60
2023-03-31T01:09:35.715Z,90.00
2023-03-31T01:15:38.926Z,89.95
2023-03-31T01:22:08.668Z,89.69
2023-03-31T01:29:08.620Z,89.66
2023-03-31T01:35:54.410Z,90.29
2023-03-31T01:42:31.476Z,90.81
2023-03-31T01:48:58.686Z,90.95
2023-03-31T01:55:12.590Z,90.46
2023-03-31T02:01:31.540Z,91.00
2023-03-31T02:07:48.062Z,91.02
2023-03-31T02:13:53.177Z,91.09
2023-03-31T02:19:56.918Z,91.29
2023-03-31T02:26:14.568Z,91.13
2023-03-31T02:32:23.358Z,90.59
2023-03-31T02:38:25.765Z,90.49
2023-03-31T02:44:27.858Z,90.70
2023-03-31T02:50:48.534Z,90.90
2023-03-31T02:57:27.173Z,90.38
2023-03-31T03:03:57.249Z,90.18
2023-03-31T03:10:09.454Z,89.94
2023-03-31T03:16:27.352Z,89.60
2023-03-31T03:22:29.373Z,89.68
2023-03-31T03:28:31.484Z,89.99
2023-03-31T03:34:33.380Z,90.35
2023-03-31T03:40:35.313Z,90.05
2023-03-31T03:46:37.251Z,90.39
2023-03-31T03:52:39.300Z,90.07
2023-03-31T03:58:41.214Z,90.28
2023-03-31T04:04:43.182Z,90.43
2023-03-31T04:10:49.731Z,90.70
2023-03-31T04:16:52.029Z,90.52
2023-03-31T04:22:54.695Z,90.69
2023-03-31T04:29:02.860Z,90.21
2023-03-31T04:35:05.176Z,90.11
2023-03-31T04:41:07.799Z,89.44
2023-03-31T04:47:09.670Z,89.61
2023-03-31T04:53:11.631Z,89.58
2023-03-31T04:59:13.644Z,88.83
2023-03-31T05:05:15.662Z,89.26
2023-03-31T05:11:17.698Z,89.61
2023-03-31T05:17:19.572Z,89.78
2023-03-31T05:23:21.526Z,90.57
2023-03-31T05:29:24.407Z,90.10
2023-03-31T05:35:26.774Z,90.47
2023-03-31T05:41:28.776Z,91.19
2023-03-31T05:47:30.938Z,91.10
2023-03-31T05:53:33.773Z,91.40
2023-03-31T05:59:36.238Z,91.99
2023-03-31T06:05:38.131Z,92.25
2023-03-31T06:11:40.116Z,92.83
2023-03-31T06:17:42.059Z,92.43
2023-03-31T06:23:45.273Z,92.68
2023-03-31T06:29:47.220Z,92.45
2023-03-31T06:35:49.144Z,92.93
2023-03-31T06:41:51.036Z,92.92
2023-03-31T06:47:52.957Z,91.62
2023-03-31T06:53:54.879Z,91.68
2023-03-31T06:59:56.800Z,89.91
2023-03-31T07:05:59.538Z,90.15
2023-03-31T07:12:01.719Z,90.20
2023-03-31T07:18:03.668Z,90.12
2023-03-31T07:24:05.874Z,90.71
2023-03-31T07:30:11.791Z,91.22
2023-03-31T07:36:14.386Z,91.56
2023-03-31T07:42:16.494Z,92.74
2023-03-31T07:48:18.526Z,93.58
2023-03-31T07:54:20.563Z,93.32
2023-03-31T08:00:23.168Z,94.37
2023-03-31T08:06:26.772Z,94.28
2023-03-31T08:12:28.681Z,94.52
2023-03-31T08:18:30.615Z,92.49
2023-03-31T08:24:32.561Z,92.87
2023-03-31T08:30:34.543Z,93.25
2023-03-31T08:36:37.721Z,94.14
2023-03-31T08:42:51.622Z,92.36
2023-03-31T08:48:57.655Z,94.24
2023-03-31T08:55:07.741Z,93.94
2023-03-31T09:01:54.735Z,92.10
2023-03-31T09:08:42.980Z,93.49
2023-03-31T09:14:53.364Z,94.86
2023-03-31T09:21:16.194Z,94.62
2023-03-31T09:27:19.887Z,93.45
2023-03-31T09:33:32.205Z,94.48
2023-03-31T09:39:34.380Z,94.60
2023-03-31T09:45:36.409Z,94.19
2023-03-31T09:51:44.436Z,94.03
2023-03-31T09:57:46.522Z,95.13
2023-03-31T10:03:52.597Z,94.65
2023-03-31T10:09:56.283Z,94.12
2023-03-31T10:16:12.811Z,94.37
2023-03-31T10:22:31.118Z,95.00
2023-03-31T10:28:36.071Z,94.85
2023-03-31T10:34:42.917Z,94.44
2023-03-31T10:40:54.685Z,94.20
2023-03-31T10:47:06.421Z,94.43
2023-03-31T10:53:17.134Z,93.68
2023-03-31T10:59:52.012Z,91.34
2023-03-31T11:06:18.265Z,89.60
2023-03-31T11:12:41.591Z,87.23
2023-03-31T11:19:25.050Z,85.01
2023-03-31T11:25:37.293Z,83.17
2023-03-31T11:32:19.686Z,80.25
2023-03-31T11:38:42.289Z,77.79
2023-03-31T11:44:53.129Z,77.61
2023-03-31T11:50:57.443Z,75.21
2023-03-31T11:57:09.717Z,73.48
2023-03-31T12:03:38.889Z,62.67
2023-03-31T12:10:12.342Z,60.69
2023-03-31T12:16:48.547Z,61.32
2023-03-31T12:22:50.821Z,62.78
2023-03-31T12:29:04.500Z,67.02
2023-03-31T12:35:23.624Z,69.68
2023-03-31T12:41:43.155Z,70.43
2023-03-31T12:48:11.587Z,74.60
2023-03-31T12:55:00.262Z,75.60
2023-03-31T13:01:19.171Z,76.04
2023-03-31T13:07:28.398Z,78.13
2023-03-31T13:13:31.350Z,77.48
2023-03-31T13:19:37.641Z,77.57
2023-03-31T13:25:56.551Z,78.84
2023-03-31T13:32:01.485Z,81.24
2023-03-31T13:38:48.998Z,85.04
2023-03-31T13:45:21.207Z,91.32
2023-03-31T13:51:53.590Z,93.35
2023-03-31T14:05:05.806Z,93.42
2023-03-31T14:11:29.965Z,93.49
2023-03-31T14:17:40.736Z,92.65
2023-03-31T14:24:03.834Z,91.94
2023-03-31T14:30:38.615Z,90.07
2023-03-31T14:36:57.948Z,88.90
2023-03-31T14:43:00.483Z,86.14
2023-03-31T14:49:28.935Z,88.16
2023-03-31T14:55:49.787Z,91.36
2023-03-31T15:01:58.617Z,92.54
2023-03-31T15:08:04.513Z,90.54
2023-03-31T15:14:09.605Z,91.55
2023-03-31T15:20:37.592Z,90.91
2023-03-31T15:27:13.779Z,90.38
2023-03-31T15:33:33.038Z,87.65
2023-03-31T15:39:37.750Z,85.83
2023-03-31T15:45:56.443Z,86.64
2023-03-31T15:52:00.488Z,87.61
2023-03-31T15:58:02.561Z,88.83
2023-03-31T16:04:12.880Z,89.60
2023-03-31T16:10:23.190Z,89.62
2023-03-31T16:16:28.368Z,90.14
2023-03-31T16:22:38.178Z,90.51
2023-03-31T16:28:40.438Z,89.90
2023-03-31T16:34:58.339Z,90.29
2023-03-31T16:41:00.766Z,90.94
2023-03-31T16:47:02.650Z,90.54
2023-03-31T16:53:04.618Z,91.51
2023-03-31T16:59:08.185Z,91.89
2023-03-31T17:05:13.290Z,91.99
2023-03-31T17:11:15.963Z,92.65
2023-03-31T17:17:18.133Z,92.30
2023-03-31T17:23:22.112Z,93.06
2023-03-31T17:29:24.716Z,93.88
2023-03-31T17:35:26.918Z,94.92
2023-03-31T17:41:31.627Z,96.08
2023-03-31T17:47:33.540Z,96.51
2023-03-31T17:53:36.679Z,96.76
2023-03-31T17:59:39.043Z,97.46
2023-03-31T18:05:41.670Z,97.92
2023-03-31T18:11:43.682Z,98.51
2023-03-31T18:17:45.675Z,99.39
2023-03-31T18:23:52.561Z,99.41
2023-03-31T18:29:54.510Z,99.72
2023-03-31T18:35:59.620Z,100.00
2023-03-31T18:42:01.588Z,100.00
2023-03-31T18:48:03.679Z,99.91
2023-03-31T18:54:06.190Z,100.00
2023-03-31T19:00:09.915Z,100.00
2023-03-31T19:06:12.358Z,100.00
2023-03-31T19:12:14.315Z,100.00
2023-03-31T19:18:16.529Z,100.00
2023-03-31T19:24:18.482Z,99.80
2023-03-31T19:30:24.139Z,100.00
2023-03-31T19:36:26.043Z,100.00
2023-03-31T19:42:27.978Z,100.00
2023-03-31T19:48:33.617Z,100.00
2023-03-31T19:54:36.098Z,99.61
2023-03-31T20:00:38.091Z,100.00
2023-03-31T20:06:40.110Z,100.00
2023-03-31T20:12:42.113Z,100.00
2023-03-31T20:18:48.042Z,100.00
2023-03-31T20:24:50.112Z,100.00
2023-03-31T20:30:55.754Z,100.00
2023-03-31T20:36:58.161Z,100.00
2023-03-31T20:43:00.105Z,100.00
2023-03-31T20:49:02.203Z,100.00
2023-03-31T20:55:04.607Z,100.00
2023-03-31T21:01:06.642Z,100.00
2023-03-31T21:07:08.570Z,100.00
2023-03-31T21:13:13.429Z,100.00
2023-03-31T21:19:15.430Z,100.00
2023-03-31T21:25:17.340Z,100.00
2023-03-31T21:31:19.736Z,100.00
2023-03-31T21:37:21.681Z,100.00
2023-03-31T21:43:25.875Z,100.00
2023-03-31T21:49:28.674Z,100.00
2023-03-31T21:55:35.840Z,100.00
2023-03-31T22:01:37.839Z,100.00
2023-03-31T22:07:40.466Z,100.00
2023-03-31T22:13:42.417Z,100.00
2023-03-31T22:19:44.623Z,100.00
2023-03-31T22:25:47.810Z,99.72
2023-03-31T22:31:49.747Z,98.52
2023-03-31T22:37:51.732Z,95.11
2023-03-31T22:43:53.651Z,96.35
2023-03-31T22:49:55.749Z,95.50
2023-03-31T22:56:04.280Z,94.08
2023-03-31T23:02:06.239Z,92.66
2023-03-31T23:08:08.147Z,92.16
2023-03-31T23:14:10.088Z,91.54
2023-03-31T23:20:12.830Z,90.49
2023-03-31T23:26:15.830Z,90.19
2023-03-31T23:32:17.937Z,91.05
2023-03-31T23:38:20.751Z,90.63
2023-03-31T23:44:22.741Z,90.68
2023-03-31T23:50:24.688Z,91.10
2023-03-31T23:56:28.483Z,91.20
